sensor_id;sensor_type;location;lat;lon;timestamp;pressure;altitude;pressure_sealevel;temperature;humidity
55014;BME280;40916;51.632;5.552;2023-03-25T00:00:09;998.0100734097124;;;9.122678626372366;0
55014;BME280;40916;51.632;5.552;2023-03-25T00:01:10;998.0408981486241;;;9.129585557795888;0
55014;BME280;40916;51.632;5.552;2023-03-25T00:02:08;997.8281540089255;;;9.129585557795888;0
55014;BME280;40916;51.632;5.552;2023-03-25T00:03:08;997.9360037893991;;;9.136492028084046;0
55014;BME280;40916;51.632;5.552;2023-03-25T00:04:08;997.9411478899904;;;9.143398037385378;0
55014;BME280;40916;51.632;5.552;2023-03-25T00:05:08;998.0834872495114;;;9.157208673621401;0
55014;BME280;40916;51.632;5.552;2023-03-25T00:06:09;997.9404264345408;;;9.157208673621401;0
55014;BME280;40916;51.632;5.552;2023-03-25T00:07:08;997.8597255415361;;;9.157208673621401;0
55014;BME280;40916;51.632;5.552;2023-03-25T00:08:08;997.9690443487942;;;9.171017467690998;0
55014;BME280;40916;51.632;5.552;2023-03-25T00:09:09;997.9448160032359;;;9.143398037385378;0
55014;BME280;40916;51.632;5.552;2023-03-25T00:10:09;997.9139954450934;;;9.136492028084046;0
55014;BME280;40916;51.632;5.552;2023-03-25T00:11:09;997.8831740068287;;;9.129585557795888;0
55014;BME280;40916;51.632;5.552;2023-03-25T00:12:09;997.8597255415361;;;9.157208673621401;0
55014;BME280;40916;51.632;5.552;2023-03-25T00:13:09;997.9881133528303;;;9.157208673621401;0
55014;BME280;40916;51.632;5.552;2023-03-25T00:14:09;997.9103510011703;;;9.171017467690998;0
55014;BME280;40916;51.632;5.552;2023-03-25T00:15:10;997.8905412108169;;;9.164113300852854;0
55014;BME280;40916;51.632;5.552;2023-03-25T00:16:09;998.0049936277541;;;9.184824420780185;0
55014;BME280;40916;51.632;5.552;2023-03-25T00:17:09;997.8053956813776;;;9.212432808756311;0
55014;BME280;40916;51.632;5.552;2023-03-25T00:18:10;997.9675129667132;;;9.233134275970873;0
55014;BME280;40916;51.632;5.552;2023-03-25T00:19:10;997.9726332316925;;;9.240033847017582;0
55014;BME280;40916;51.632;5.552;2023-03-25T00:20:10;997.9821882971589;;;9.233134275970873;0
55014;BME280;40916;51.632;5.552;2023-03-25T00:21:10;997.8552288836797;;;9.240033847017582;0
55014;BME280;40916;51.632;5.552;2023-03-25T00:22:10;997.9843150397752;;;9.260729808149485;0
55014;BME280;40916;51.632;5.552;2023-03-25T00:23:10;998.037127058618;;;9.267627545015575;0
55014;BME280;40916;51.632;5.552;2023-03-25T00:24:10;998.0884946208266;;;9.267627545015575;0
55014;BME280;40916;51.632;5.552;2023-03-25T00:25:12;997.9945405637723;;;9.274524823704997;0
55014;BME280;40916;51.632;5.552;2023-03-25T00:26:11;997.9358339454207;;;9.274524823704997;0
55014;BME280;40916;51.632;5.552;2023-03-25T00:27:11;998.1390812897303;;;9.281421644365025;0
55014;BME280;40916;51.632;5.552;2023-03-25T00:28:11;998.1023890508505;;;9.281421644365025;0
55014;BME280;40916;51.632;5.552;2023-03-25T00:29:11;998.0832530865912;;;9.295213912185659;0
55014;BME280;40916;51.632;5.552;2023-03-25T00:30:11;998.1242539190014;;;9.315898882374256;0
55014;BME280;40916;51.632;5.552;2023-03-25T00:31:12;998.0559646982447;;;9.322792957947044;0
55014;BME280;40916;51.632;5.552;2023-03-25T00:32:12;998.1373120254619;;;9.343472443250768;0
55014;BME280;40916;51.632;5.552;2023-03-25T00:33:11;997.9803324482671;;;9.32968657651956;0
55014;BME280;40916;51.632;5.552;2023-03-25T00:34:11;998.0345598786508;;;9.343472443250768;0
55014;BME280;40916;51.632;5.552;2023-03-25T00:35:11;997.9927680078434;;;9.336579738238566;0
55014;BME280;40916;51.632;5.552;2023-03-25T00:36:12;998.0641087483252;;;9.30900434965437;0
55014;BME280;40916;51.632;5.552;2023-03-25T00:37:12;997.8315026152698;;;9.30210935964049;0
55014;BME280;40916;51.632;5.552;2023-03-25T00:38:12;997.9305759227423;;;9.30210935964049;0
55014;BME280;40916;51.632;5.552;2023-03-25T00:39:12;997.9605563603008;;;9.322792957947044;0
55014;BME280;40916;51.632;5.552;2023-03-25T00:40:12;997.9819473014013;;;9.30210935964049;0
55014;BME280;40916;51.632;5.552;2023-03-25T00:41:13;997.9144638898433;;;9.295213912185659;0
55014;BME280;40916;51.632;5.552;2023-03-25T00:42:14;998.0942610864017;;;9.295213912185659;0
55014;BME280;40916;51.632;5.552;2023-03-25T00:43:12;997.9658344883707;;;9.295213912185659;0
55014;BME280;40916;51.632;5.552;2023-03-25T00:44:12;997.9760421534689;;;9.30900434965437;0
55014;BME280;40916;51.632;5.552;2023-03-25T00:45:12;998.0641087483252;;;9.30900434965437;0
55014;BME280;40916;51.632;5.552;2023-03-25T00:46:12;998.0508639423997;;;9.315898882374256;0
55014;BME280;40916;51.632;5.552;2023-03-25T00:47:13;998.0398554500019;;;9.315898882374256;0
55014;BME280;40916;51.632;5.552;2023-03-25T00:48:13;997.9297705847451;;;9.315898882374256;0
55014;BME280;40916;51.632;5.552;2023-03-25T00:49:13;997.949547711083;;;9.322792957947044;0
55014;BME280;40916;51.632;5.552;2023-03-25T00:50:13;997.9438185147264;;;9.295213912185659;0
55014;BME280;40916;51.632;5.552;2023-03-25T00:51:13;997.9093583542037;;;9.288318007142866;0
55014;BME280;40916;51.632;5.552;2023-03-25T00:52:13;997.861657824785;;;9.288318007142866;0
55014;BME280;40916;51.632;5.552;2023-03-25T00:53:13;997.9768424767941;;;9.295213912185659;0
55014;BME280;40916;51.632;5.552;2023-03-25T00:54:13;998.0187815063199;;;9.267627545015575;0
55014;BME280;40916;51.632;5.552;2023-03-25T00:55:13;997.9153798241753;;;9.246932959297919;0
55014;BME280;40916;51.632;5.552;2023-03-25T00:56:14;997.9535168100601;;;9.253831612959399;0
55014;BME280;40916;51.632;5.552;2023-03-25T00:57:14;997.882359358611;;;9.246932959297919;0
55014;BME280;40916;51.632;5.552;2023-03-25T00:58:14;997.9453993267779;;;9.267627545015575;0
55014;BME280;40916;51.632;5.552;2023-03-25T00:59:14;997.9359443598939;;;9.240033847017582;0
55014;BME280;40916;51.632;5.552;2023-03-25T01:00:19;997.9124804944402;;;9.233134275970873;0
55014;BME280;40916;51.632;5.552;2023-03-25T01:01:15;997.9264615726432;;;9.212432808756311;0
55014;BME280;40916;51.632;5.552;2023-03-25T01:02:14;997.9513847151462;;;9.2262342460102;0
55014;BME280;40916;51.632;5.552;2023-03-25T01:03:14;997.8596653367888;;;9.2262342460102;0
55014;BME280;40916;51.632;5.552;2023-03-25T01:04:14;997.9638441343984;;;9.233134275970873;0
55014;BME280;40916;51.632;5.552;2023-03-25T01:05:14;997.8449902431292;;;9.2262342460102;0
55014;BME280;40916;51.632;5.552;2023-03-25T01:06:15;997.9477159385891;;;9.2262342460102;0
55014;BME280;40916;51.632;5.552;2023-03-25T01:07:15;997.9257032817357;;;9.2262342460102;0
55014;BME280;40916;51.632;5.552;2023-03-25T01:08:15;997.8303151513669;;;9.2262342460102;0
55014;BME280;40916;51.632;5.552;2023-03-25T01:09:15;997.8633341105001;;;9.2262342460102;0
55014;BME280;40916;51.632;5.552;2023-03-25T01:10:15;997.8552288836797;;;9.240033847017582;0
55014;BME280;40916;51.632;5.552;2023-03-25T01:11:16;997.9558108990626;;;9.212432808756311;0
55014;BME280;40916;51.632;5.552;2023-03-25T01:12:15;998.0159670279642;;;9.219333756987915;0
55014;BME280;40916;51.632;5.552;2023-03-25T01:13:15;997.8780605982232;;;9.191727207327478;0
55014;BME280;40916;51.632;5.552;2023-03-25T01:14:16;997.9081182474847;;;9.212432808756311;0
55014;BME280;40916;51.632;5.552;2023-03-25T01:15:16;997.9294195820428;;;9.191727207327478;0
55014;BME280;40916;51.632;5.552;2023-03-25T01:16:16;997.7232661581634;;;9.171017467690998;0
55014;BME280;40916;51.632;5.552;2023-03-25T01:17:16;998.0270043110482;;;9.184824420780185;0
55014;BME280;40916;51.632;5.552;2023-03-25T01:18:16;998.0093960428906;;;9.171017467690998;0
55014;BME280;40916;51.632;5.552;2023-03-25T01:19:16;998.0027862547962;;;9.157208673621401;0
55014;BME280;40916;51.632;5.552;2023-03-25T01:20:16;997.9668434745764;;;9.177921174284055;0
55014;BME280;40916;51.632;5.552;2023-03-25T01:21:16;998.0336041184496;;;9.164113300852854;0
55014;BME280;40916;51.632;5.552;2023-03-25T01:22:16;997.9558203436841;;;9.143398037385378;0
55014;BME280;40916;51.632;5.552;2023-03-25T01:23:16;997.999118029127;;;9.157208673621401;0
55014;BME280;40916;51.632;5.552;2023-03-25T01:24:17;997.9403823894114;;;9.122678626372366;0
55014;BME280;40916;51.632;5.552;2023-03-25T01:25:17;997.891919443705;;;9.101955063803263;0
55014;BME280;40916;51.632;5.552;2023-03-25T01:26:17;997.8742748352375;;;9.088137047020947;0
55014;BME280;40916;51.632;5.552;2023-03-25T01:27:17;997.8602915677628;;;9.074317182126808;0
55014;BME280;40916;51.632;5.552;2023-03-25T01:28:17;997.9468188599725;;;9.0674065562653;0
55014;BME280;40916;51.632;5.552;2023-03-25T01:29:18;997.9167967949736;;;9.081227345662342;0
55014;BME280;40916;51.632;5.552;2023-03-25T01:30:17;998.0311715086515;;;9.0674065562653;0
55014;BME280;40916;51.632;5.552;2023-03-25T01:31:17;997.9386584803444;;;9.046671903233442;0
55014;BME280;40916;51.632;5.552;2023-03-25T01:32:17;997.8644733364425;;;9.025933083895808;0
55014;BME280;40916;51.632;5.552;2023-03-25T01:33:18;997.9768318317683;;;9.053583916967828;0
55014;BME280;40916;51.632;5.552;2023-03-25T01:34:18;997.9789992151444;;;9.046671903233442;0
55014;BME280;40916;51.632;5.552;2023-03-25T01:35:18;997.924652653809;;;9.032846486846836;0
55014;BME280;40916;51.632;5.552;2023-03-25T01:36:18;997.9436444290039;;;9.019019217573653;0
55014;BME280;40916;51.632;5.552;2023-03-25T01:37:18;997.9363101938288;;;9.019019217573653;0
55014;BME280;40916;51.632;5.552;2023-03-25T01:38:18;997.9119316021809;;;8.991359115581503;0
55014;BME280;40916;51.632;5.552;2023-03-25T01:39:18;997.8545266604706;;;8.963691587674571;0
55014;BME280;40916;51.632;5.552;2023-03-25T01:40:19;997.9351934732025;;;8.963691587674571;0
55014;BME280;40916;51.632;5.552;2023-03-25T01:41:18;998.0195270205353;;;8.963691587674571;0
55014;BME280;40916;51.632;5.552;2023-03-25T01:42:18;997.9562853320083;;;8.94293606271405;0
55014;BME280;40916;51.632;5.552;2023-03-25T01:43:19;997.83743034703;;;8.936016624253913;0
55014;BME280;40916;51.632;5.552;2023-03-25T01:45:21;997.9603834290847;;;8.846021525295072;0
55014;BME280;40916;51.632;5.552;2023-03-25T01:45:23;997.8533028483466;;;8.908334215704038;0
55014;BME280;40916;51.632;5.552;2023-03-25T01:46:19;997.9458027363804;;;8.797529937321304;0
55014;BME280;40916;51.632;5.552;2023-03-25T01:47:19;997.9379525015213;;;8.762879041567995;0
55014;BME280;40916;51.632;5.552;2023-03-25T01:48:20;997.8829105449919;;;8.714348081043497;0
55014;BME280;40916;51.632;5.552;2023-03-25T01:49:20;997.8096170184848;;;8.714348081043497;0
55014;BME280;40916;51.632;5.552;2023-03-25T01:50:19;997.846752927691;;;8.700477863115552;0
55014;BME280;40916;51.632;5.552;2023-03-25T01:51:20;997.9598687987591;;;8.714348081043497;0
55014;BME280;40916;51.632;5.552;2023-03-25T01:52:21;997.9195573259927;;;8.714348081043497;0
55014;BME280;40916;51.632;5.552;2023-03-25T01:53:20;997.9059860533998;;;8.73514988207322;0
55014;BME280;40916;51.632;5.552;2023-03-25T01:54:20;997.9112313952237;;;8.742082876129398;0
55014;BME280;40916;51.632;5.552;2023-03-25T01:55:20;997.8730024558241;;;8.73514988207322;0
55014;BME280;40916;51.632;5.552;2023-03-25T01:56:21;997.8714207152532;;;8.728216418308389;0
55014;BME280;40916;51.632;5.552;2023-03-25T01:57:21;997.8990097678977;;;8.672731780388524;0
55014;BME280;40916;51.632;5.552;2023-03-25T01:58:20;997.7485517099548;;;8.62415799307761;0
55014;BME280;40916;51.632;5.552;2023-03-25T02:00:20;997.816111132798;;;8.631098520784985;0
55014;BME280;40916;51.632;5.552;2023-03-25T02:01:20;997.8825068582322;;;8.61721699321689;0
55014;BME280;40916;51.632;5.552;2023-03-25T02:02:20;997.7551429273207;;;8.589448269172419;0
55014;BME280;40916;51.632;5.552;2023-03-25T02:03:20;997.9855290949502;;;8.603333576421914;0
55014;BME280;40916;51.632;5.552;2023-03-25T02:04:23;997.8894958368297;;;8.568616761007853;0
55014;BME280;40916;51.632;5.552;2023-03-25T02:05:22;997.8809494164705;;;8.54778099240438;0
55014;BME280;40916;51.632;5.552;2023-03-25T02:06:21;997.7828354971409;;;8.519993333064988;0
55014;BME280;40916;51.632;5.552;2023-03-25T02:07:21;997.7412891932362;;;8.49914760726276;0
55014;BME280;40916;51.632;5.552;2023-03-25T02:08:21;997.8436442908055;;;8.436584767255734;0
55014;BME280;40916;51.632;5.552;2023-03-25T02:09:22;997.7973542280221;;;8.38094096782326;0
55014;BME280;40916;51.632;5.552;2023-03-25T02:10:21;997.7326477876109;;;8.325266604492036;0
55014;BME280;40916;51.632;5.552;2023-03-25T02:11:21;997.8027729106483;;;8.29741793642491;0
55014;BME280;40916;51.632;5.552;2023-03-25T02:12:21;997.8525955722286;;;8.27652640187015;0
55014;BME280;40916;51.632;5.552;2023-03-25T02:13:21;997.82892606173;;;8.26956159742097;0
55014;BME280;40916;51.632;5.552;2023-03-25T02:14:23;997.7957168899269;;;8.283490726416108;0
55014;BME280;40916;51.632;5.552;2023-03-25T02:15:22;997.6258635558177;;;8.262596312911846;0
55014;BME280;40916;51.632;5.552;2023-03-25T02:16:25;997.7889055812919;;;8.25563054818599;0
55014;BME280;40916;51.632;5.552;2023-03-25T02:17:24;997.774506268143;;;8.24169757745658;0
55014;BME280;40916;51.632;5.552;2023-03-25T02:18:25;997.8726026969235;;;8.283490726416108;0
55014;BME280;40916;51.632;5.552;2023-03-25T02:19:39;997.8103618015301;;;8.283490726416108;0
55014;BME280;40916;51.632;5.552;2023-03-25T02:20:30;997.8869837456942;;;8.29741793642491;0
55014;BME280;40916;51.632;5.552;2023-03-25T02:21:59;997.8700970227222;;;8.318305156078068;0
55014;BME280;40916;51.632;5.552;2023-03-25T02:22:32;997.8219206009875;;;8.346148077510108;0
55014;BME280;40916;51.632;5.552;2023-03-25T02:23:28;997.7387621271533;;;8.38094096782326;0
55014;BME280;40916;51.632;5.552;2023-03-25T02:24:41;997.746086138108;;;8.38094096782326;0
55014;BME280;40916;51.632;5.552;2023-03-25T02:26:29;997.5246959456555;;;8.373983345504769;0
55014;BME280;40916;51.632;5.552;2023-03-25T02:26:30;997.7680581738072;;;8.38094096782326;0
55014;BME280;40916;51.632;5.552;2023-03-25T02:27:26;997.7717201801705;;;8.38094096782326;0
55014;BME280;40916;51.632;5.552;2023-03-25T02:28:24;997.7331094839723;;;8.38789811258119;0
55014;BME280;40916;51.632;5.552;2023-03-25T02:29:26;997.7860486728689;;;8.394854779934192;0
55014;BME280;40916;51.632;5.552;2023-03-25T02:31:28;997.7401089268579;;;8.401810970037833;0
55014;BME280;40916;51.632;5.552;2023-03-25T02:31:31;997.6801700565294;;;8.38094096782326;0
55014;BME280;40916;51.632;5.552;2023-03-25T02:32:29;997.7750623188294;;;8.394854779934192;0
55014;BME280;40916;51.632;5.552;2023-03-25T02:34:31;997.7920180844746;;;8.373983345504769;0
55014;BME280;40916;51.632;5.552;2023-03-25T02:34:44;997.9215471267863;;;8.394854779934192;0
55014;BME280;40916;51.632;5.552;2023-03-25T02:35:27;997.8193262736452;;;8.38094096782326;0
55014;BME280;40916;51.632;5.552;2023-03-25T02:36:30;997.7686758189028;;;8.353107611628552;0
55014;BME280;40916;51.632;5.552;2023-03-25T02:37:28;997.736868822452;;;8.29741793642491;0
55014;BME280;40916;51.632;5.552;2023-03-25T02:38:26;997.7230075177067;;;8.25563054818599;0
55014;BME280;40916;51.632;5.552;2023-03-25T02:39:25;997.8330805662138;;;8.24169757745658;0
55014;BME280;40916;51.632;5.552;2023-03-25T02:40:25;997.7413301646925;;;8.13713892242567;0
55014;BME280;40916;51.632;5.552;2023-03-25T02:41:25;997.7254637027434;;;8.088307720890889;0
55014;BME280;40916;51.632;5.552;2023-03-25T02:42:25;997.7313271453434;;;8.053413769624473;0
55014;BME280;40916;51.632;5.552;2023-03-25T02:43:26;997.7535470846316;;;8.025489880420363;0
55014;BME280;40916;51.632;5.552;2023-03-25T02:44:26;997.7592133306538;;;8.004541865394813;0
55014;BME280;40916;51.632;5.552;2023-03-25T02:45:26;997.6823744522242;;;8.004541865394813;0
55014;BME280;40916;51.632;5.552;2023-03-25T02:46:25;997.6659657708416;;;7.997558221799512;0
55014;BME280;40916;51.632;5.552;2023-03-25T02:47:25;997.660532332191;;;7.990574091978527;0
55014;BME280;40916;51.632;5.552;2023-03-25T02:48:26;997.6311485621687;;;8.004541865394813;0
55014;BME280;40916;51.632;5.552;2023-03-25T02:49:26;997.733225902083;;;8.04643352514936;0
55014;BME280;40916;51.632;5.552;2023-03-25T02:50:26;997.6163918100248;;;8.018507694545931;0
55014;BME280;40916;51.632;5.552;2023-03-25T02:51:26;997.674937465633;;;8.018507694545931;0
55014;BME280;40916;51.632;5.552;2023-03-25T02:52:25;997.6035215093395;;;8.025489880420363;0
55014;BME280;40916;51.632;5.552;2023-03-25T02:53:26;997.60541450296;;;8.018507694545931;0
55014;BME280;40916;51.632;5.552;2023-03-25T02:54:25;997.5357607304215;;;8.032471580706332;0
55014;BME280;40916;51.632;5.552;2023-03-25T02:55:26;997.539135652806;;;8.060393529147238;0
55014;BME280;40916;51.632;5.552;2023-03-25T02:56:26;997.6541800296528;;;8.081329899589655;0
55014;BME280;40916;51.632;5.552;2023-03-25T02:57:26;997.5294154873033;;;8.109238280475953;0
55014;BME280;40916;51.632;5.552;2023-03-25T02:58:26;997.4866585442719;;;8.15805933130208;0
55014;BME280;40916;51.632;5.552;2023-03-25T02:59:26;997.4498471208373;;;8.172003857405794;0
55014;BME280;40916;51.632;5.552;2023-03-25T03:00:26;997.608750524059;;;8.192917029996188;0
55014;BME280;40916;51.632;5.552;2023-03-25T03:01:26;997.663657994855;;;8.192917029996188;0
55014;BME280;40916;51.632;5.552;2023-03-25T03:02:26;997.5482406907533;;;8.199887123739455;0
55014;BME280;40916;51.632;5.552;2023-03-25T03:03:26;997.5148282544284;;;8.227762683977058;0
55014;BME280;40916;51.632;5.552;2023-03-25T03:04:26;997.5053054703917;;;8.248664303086546;0
55014;BME280;40916;51.632;5.552;2023-03-25T03:05:27;997.435488852643;;;8.262596312911846;0
55014;BME280;40916;51.632;5.552;2023-03-25T03:06:27;997.4059332484145;;;8.27652640187015;0
55014;BME280;40916;51.632;5.552;2023-03-25T03:07:28;997.452348169047;;;8.24169757745658;0
55014;BME280;40916;51.632;5.552;2023-03-25T03:08:30;997.3605688518375;;;8.25563054818599;0
55014;BME280;40916;51.632;5.552;2023-03-25T03:09:28;997.3459248896618;;;8.25563054818599;0
55014;BME280;40916;51.632;5.552;2023-03-25T03:10:28;997.3239589499406;;;8.25563054818599;0
55014;BME280;40916;51.632;5.552;2023-03-25T03:11:27;997.4078983510078;;;8.26956159742097;0
55014;BME280;40916;51.632;5.552;2023-03-25T03:12:31;997.3895928337934;;;8.26956159742097;0
55014;BME280;40916;51.632;5.552;2023-03-25T03:13:28;997.3969150403249;;;8.26956159742097;0
55014;BME280;40916;51.632;5.552;2023-03-25T03:14:29;997.4027992043157;;;8.248664303086546;0
55014;BME280;40916;51.632;5.552;2023-03-25T03:15:30;997.4520936582387;;;8.25563054818599;0
55014;BME280;40916;51.632;5.552;2023-03-25T03:16:31;997.477974348002;;;8.24169757745658;0
55014;BME280;40916;51.632;5.552;2023-03-25T03:17:29;997.4379520506126;;;8.227762683977058;0
55014;BME280;40916;51.632;5.552;2023-03-25T03:18:32;997.5807221848538;;;8.227762683977058;0
55014;BME280;40916;51.632;5.552;2023-03-25T03:19:31;997.4894411461298;;;8.213825866490641;0
55014;BME280;40916;51.632;5.552;2023-03-25T03:20:30;997.4494058577095;;;8.199887123739455;0
55014;BME280;40916;51.632;5.552;2023-03-25T03:21:29;997.6324333941875;;;8.199887123739455;0
55014;BME280;40916;51.632;5.552;2023-03-25T03:22:32;997.6692566596871;;;8.185946454464528;0
55014;BME280;40916;51.632;5.552;2023-03-25T03:23:28;997.5081972658437;;;8.185946454464528;0
55014;BME280;40916;51.632;5.552;2023-03-25T03:24:29;997.4440282710326;;;8.192917029996188;0
55014;BME280;40916;51.632;5.552;2023-03-25T03:25:29;997.4735321169276;;;8.178975396986935;0
55014;BME280;40916;51.632;5.552;2023-03-25T03:26:32;997.6065823444102;;;8.213825866490641;0
55014;BME280;40916;51.632;5.552;2023-03-25T03:27:29;997.6048665731806;;;8.206856735851805;0
55014;BME280;40916;51.632;5.552;2023-03-25T03:28:29;997.5443510677715;;;8.213825866490641;0
55014;BME280;40916;51.632;5.552;2023-03-25T03:29:30;997.5667642917089;;;8.185946454464528;0
55014;BME280;40916;51.632;5.552;2023-03-25T03:30:30;997.5122800481823;;;8.15805933130208;0
55014;BME280;40916;51.632;5.552;2023-03-25T03:31:31;997.4394722940118;;;8.130164486909553;0
55014;BME280;40916;51.632;5.552;2023-03-25T03:32:30;997.5898890459779;;;8.102261911175564;0
55014;BME280;40916;51.632;5.552;2023-03-25T03:33:30;997.6726313254991;;;8.067372803876513;0
55014;BME280;40916;51.632;5.552;2023-03-25T03:34:30;997.5193609075792;;;8.025489880420363;0
55014;BME280;40916;51.632;5.552;2023-03-25T03:35:30;997.5304655904553;;;8.011525022923838;0
55014;BME280;40916;51.632;5.552;2023-03-25T03:36:30;997.6294853885568;;;7.983589475772376;0
55014;BME280;40916;51.632;5.552;2023-03-25T03:37:31;997.5968402095641;;;7.941671555507284;0
55014;BME280;40916;51.632;5.552;2023-03-25T03:38:32;997.6536605545016;;;7.920706016235702;0
55014;BME280;40916;51.632;5.552;2023-03-25T03:39:30;997.6428625988455;;;7.878761757799612;0
55014;BME280;40916;51.632;5.552;2023-03-25T03:40:30;997.6868008113753;;;7.864776428462154;0
55014;BME280;40916;51.632;5.552;2023-03-25T03:41:30;997.6356554903609;;;7.8367998972868556;0
55014;BME280;40916;51.632;5.552;2023-03-25T03:42:31;997.5588838555192;;;7.808815527526853;0
55014;BME280;40916;51.632;5.552;2023-03-25T03:43:32;997.5552106546729;;;7.822808692874322;0
55014;BME280;40916;51.632;5.552;2023-03-25T03:44:30;997.5881432503671;;;7.808815527526853;0
55014;BME280;40916;51.632;5.552;2023-03-25T03:45:32;997.5881503550843;;;7.794820399954279;0
55014;BME280;40916;51.632;5.552;2023-03-25T03:46:32;997.6411703068549;;;7.815812355398062;0
55014;BME280;40916;51.632;5.552;2023-03-25T03:47:31;997.4912136241858;;;7.815812355398062;0
55014;BME280;40916;51.632;5.552;2023-03-25T03:48:31;997.4967076665098;;;7.808815527526853;0
55014;BME280;40916;51.632;5.552;2023-03-25T03:49:32;997.5076627011468;;;7.822808692874322;0
55014;BME280;40916;51.632;5.552;2023-03-25T03:50:31;997.5387407319561;;;7.829804540116864;0
55014;BME280;40916;51.632;5.552;2023-03-25T03:51:31;997.5478955836033;;;7.822808692874322;0
55014;BME280;40916;51.632;5.552;2023-03-25T03:52:31;997.4619313456881;;;7.829804540116864;0
55014;BME280;40916;51.632;5.552;2023-03-25T03:53:32;997.421697878386;;;7.829804540116864;0
55014;BME280;40916;51.632;5.552;2023-03-25T03:54:31;997.4930072254334;;;7.8367998972868556;0
55014;BME280;40916;51.632;5.552;2023-03-25T03:55:31;997.3833066091677;;;7.822808692874322;0
55014;BME280;40916;51.632;5.552;2023-03-25T03:56:32;997.4966319854545;;;7.850789142053497;0
55014;BME280;40916;51.632;5.552;2023-03-25T03:57:32;997.4086932262265;;;7.892745131351525;0
55014;BME280;40916;51.632;5.552;2023-03-25T03:58:32;997.4743235172315;;;7.934683530133654;0
55014;BME280;40916;51.632;5.552;2023-03-25T03:59:34;997.4302379873138;;;7.962632707247078;0
55014;BME280;40916;51.632;5.552;2023-03-25T04:00:33;997.3790169030597;;;7.962632707247078;0
55014;BME280;40916;51.632;5.552;2023-03-25T04:01:33;997.4409997104212;;;7.990574091978527;0
55014;BME280;40916;51.632;5.552;2023-03-25T04:02:33;997.409956178166;;;7.983589475772376;0
55014;BME280;40916;51.632;5.552;2023-03-25T04:03:33;997.4079503110199;;;8.004541865394813;0
55014;BME280;40916;51.632;5.552;2023-03-25T04:04:32;997.3767858498256;;;8.011525022923838;0
55014;BME280;40916;51.632;5.552;2023-03-25T04:05:32;997.3675731105722;;;8.018507694545931;0
55014;BME280;40916;51.632;5.552;2023-03-25T04:06:33;997.2632203296578;;;8.025489880420363;0
55014;BME280;40916;51.632;5.552;2023-03-25T04:07:33;997.4369620600928;;;8.032471580706332;0
55014;BME280;40916;51.632;5.552;2023-03-25T04:08:33;997.5209849820591;;;8.04643352514936;0
55014;BME280;40916;51.632;5.552;2023-03-25T04:09:34;997.5041362761426;;;8.081329899589655;0
55014;BME280;40916;51.632;5.552;2023-03-25T04:10:35;997.5130338705568;;;8.102261911175564;0
55014;BME280;40916;51.632;5.552;2023-03-25T04:11:34;997.5438748591204;;;8.123189568184678;0
55014;BME280;40916;51.632;5.552;2023-03-25T04:12:33;997.4230969895532;;;8.123189568184678;0
55014;BME280;40916;51.632;5.552;2023-03-25T04:13:34;997.445056592643;;;8.123189568184678;0
55014;BME280;40916;51.632;5.552;2023-03-25T04:14:33;997.4760721979807;;;8.130164486909553;0
55014;BME280;40916;51.632;5.552;2023-03-25T04:15:33;997.5161399714503;;;8.144112874891125;0
55014;BME280;40916;51.632;5.552;2023-03-25T04:16:33;997.4500564058608;;;8.15805933130208;0
55014;BME280;40916;51.632;5.552;2023-03-25T04:17:33;997.4459698339725;;;8.185946454464528;0
55014;BME280;40916;51.632;5.552;2023-03-25T04:18:33;997.5704247318289;;;8.185946454464528;0
55014;BME280;40916;51.632;5.552;2023-03-25T04:19:33;997.4254968965622;;;8.206856735851805;0
55014;BME280;40916;51.632;5.552;2023-03-25T04:20:34;997.5023695804053;;;8.206856735851805;0